Time;durP1;ratioP1;P1;durP2;ratioP2;P2;SDS_P1;SDS_P2;PMS_P1;PMS_P2;Temp;Humidity;BMP_temperature;BMP_pressure;BME280_temperature;BME280_humidity;BME280_pressure;Samples;Min_cycle;Max_cycle;Signal;HPM_P1;HPM_P2
2023/12/29 00:00:20;;;;;;;68.45;37.90;;;;;;;;;;6184620;23;20013;-64
2023/12/29 00:02:47;;;;;;;71.43;38.70;;;;;;;;;;6183359;23;20021;-65
2023/12/29 00:05:15;;;;;;;73.72;38.83;;;;;;;;;;6184400;23;20032;-65
2023/12/29 00:07:43;;;;;;;67.80;37.05;;;;;;;;;;6184803;23;20021;-64
2023/12/29 00:10:10;;;;;;;71.88;38.70;;;;;;;;;;6184653;23;20343;-65
2023/12/29 00:12:38;;;;;;;70.97;39.50;;;;;;;;;;6184571;23;20104;-64
2023/12/29 00:15:06;;;;;;;73.72;39.28;;;;;;;;;;6184413;23;20013;-64
2023/12/29 00:17:37;;;;;;;66.45;38.60;;;;;;;;;;6184651;23;20020;-64
2023/12/29 00:20:05;;;;;;;75.03;39.30;;;;;;;;;;6184669;23;20013;-64
2023/12/29 00:22:32;;;;;;;76.57;39.80;;;;;;;;;;6184403;23;20053;-65
2023/12/29 00:25:00;;;;;;;67.00;38.38;;;;;;;;;;6184793;23;20025;-65
2023/12/29 00:27:28;;;;;;;70.28;38.75;;;;;;;;;;6184618;23;20028;-64
2023/12/29 00:29:55;;;;;;;80.10;39.25;;;;;;;;;;6182931;23;20013;-64
2023/12/29 00:32:23;;;;;;;69.38;38.55;;;;;;;;;;6183104;23;20108;-63
2023/12/29 00:34:51;;;;;;;69.32;38.50;;;;;;;;;;6182860;23;20083;-63
2023/12/29 00:37:18;;;;;;;75.00;39.30;;;;;;;;;;6183010;23;20028;-63
2023/12/29 00:39:46;;;;;;;69.43;39.47;;;;;;;;;;6160233;23;20049;-63
2023/12/29 00:42:13;;;;;;;73.05;37.28;;;;;;;;;;6184451;23;20451;-64
2023/12/29 00:44:41;;;;;;;72.05;37.88;;;;;;;;;;6184715;23;20032;-64
2023/12/29 00:47:09;;;;;;;65.32;38.67;;;;;;;;;;6184831;23;20028;-64
2023/12/29 00:49:40;;;;;;;75.45;40.13;;;;;;;;;;6184431;23;20017;-64
2023/12/29 00:52:07;;;;;;;69.72;39.63;;;;;;;;;;6184574;23;20013;-64
2023/12/29 00:54:35;;;;;;;71.25;38.97;;;;;;;;;;6184389;23;20414;-64
2023/12/29 00:57:03;;;;;;;68.63;39.25;;;;;;;;;;6184490;23;20028;-63
2023/12/29 00:59:30;;;;;;;70.60;38.55;;;;;;;;;;6184316;23;20020;-64
2023/12/29 01:01:58;;;;;;;68.30;38.50;;;;;;;;;;6159956;23;20356;-64
2023/12/29 01:04:26;;;;;;;70.72;38.13;;;;;;;;;;6184580;23;20104;-65
2023/12/29 01:06:54;;;;;;;69.78;38.22;;;;;;;;;;6184486;23;20439;-64
2023/12/29 01:09:22;;;;;;;72.25;39.13;;;;;;;;;;6184312;23;20013;-65
2023/12/29 01:11:49;;;;;;;73.53;41.38;;;;;;;;;;6185914;23;20053;-65
2023/12/29 01:14:17;;;;;;;71.80;39.22;;;;;;;;;;6184426;23;20351;-65
2023/12/29 01:16:44;;;;;;;68.57;39.38;;;;;;;;;;6184418;23;20021;-65
2023/12/29 01:19:12;;;;;;;68.13;37.97;;;;;;;;;;6185747;23;20020;-64
2023/12/29 01:21:39;;;;;;;71.63;38.92;;;;;;;;;;6185746;23;20020;-64
2023/12/29 01:24:07;;;;;;;72.80;39.75;;;;;;;;;;6185964;23;20351;-65
2023/12/29 01:26:38;;;;;;;76.80;41.17;;;;;;;;;;6185761;23;20013;-65
2023/12/29 01:29:06;;;;;;;85.82;48.20;;;;;;;;;;6184453;23;20087;-64
2023/12/29 01:31:33;;;;;;;94.30;49.35;;;;;;;;;;6184403;23;20041;-64
2023/12/29 01:34:01;;;;;;;91.15;49.60;;;;;;;;;;6184602;23;20032;-64
2023/12/29 01:36:29;;;;;;;89.13;49.38;;;;;;;;;;6184033;23;20355;-65
2023/12/29 01:38:57;;;;;;;88.90;48.97;;;;;;;;;;6184248;23;20328;-64
2023/12/29 01:41:24;;;;;;;84.18;49.67;;;;;;;;;;6184568;23;20064;-64
2023/12/29 01:44:01;;;;;;;95.68;49.20;;;;;;;;;;6183970;23;20071;-64
2023/12/29 01:46:29;;;;;;;94.35;48.28;;;;;;;;;;6183993;23;20017;-62
2023/12/29 01:48:58;;;;;;;88.53;47.92;;;;;;;;;;6185437;23;20079;-62
2023/12/29 01:51:27;;;;;;;87.38;48.30;;;;;;;;;;6184024;23;20024;-62
2023/12/29 01:53:56;;;;;;;90.55;49.40;;;;;;;;;;6185329;23;20013;-63
2023/12/29 01:56:23;;;;;;;96.60;50.20;;;;;;;;;;6185638;23;20075;-63
2023/12/29 01:58:51;;;;;;;87.82;48.05;;;;;;;;;;6183832;23;20036;-63
2023/12/29 02:01:19;;;;;;;90.43;48.67;;;;;;;;;;6185727;23;20032;-63
2023/12/29 02:03:47;;;;;;;90.72;49.53;;;;;;;;;;6185292;23;20040;-63
2023/12/29 02:06:16;;;;;;;90.43;48.90;;;;;;;;;;6185442;23;20047;-63
2023/12/29 02:08:44;;;;;;;93.20;49.28;;;;;;;;;;6183931;23;20025;-63
2023/12/29 02:11:11;;;;;;;97.05;51.20;;;;;;;;;;6183689;23;20097;-63
2023/12/29 02:13:40;;;;;;;90.13;48.13;;;;;;;;;;6184318;23;20021;-63
2023/12/29 02:16:10;;;;;;;91.40;47.78;;;;;;;;;;6183725;23;20125;-63
2023/12/29 02:18:39;;;;;;;89.43;48.33;;;;;;;;;;6183933;23;20013;-63
2023/12/29 02:21:07;;;;;;;82.65;47.22;;;;;;;;;;6185058;23;20431;-64
2023/12/29 02:23:34;;;;;;;79.45;44.55;;;;;;;;;;6183717;23;20020;-63
2023/12/29 02:26:08;;;;;;;81.53;45.28;;;;;;;;;;6183781;23;20021;-63
2023/12/29 02:28:39;;;;;;;78.72;44.05;;;;;;;;;;6183491;23;20025;-63
2023/12/29 02:31:12;;;;;;;78.85;43.28;;;;;;;;;;6183703;23;20025;-63
2023/12/29 02:33:41;;;;;;;80.50;43.72;;;;;;;;;;6183590;23;20025;-63
2023/12/29 02:36:11;;;;;;;78.82;43.13;;;;;;;;;;6185269;23;20075;-63
2023/12/29 02:38:39;;;;;;;75.68;41.20;;;;;;;;;;6183470;23;20403;-63
2023/12/29 02:41:07;;;;;;;74.32;41.33;;;;;;;;;;6183348;23;20028;-63
2023/12/29 02:43:35;;;;;;;69.43;39.92;;;;;;;;;;6183550;23;20052;-64
2023/12/29 02:46:03;;;;;;;68.78;38.85;;;;;;;;;;6183363;23;20028;-63
2023/12/29 02:48:31;;;;;;;71.20;38.55;;;;;;;;;;6183441;23;20021;-64
2023/12/29 02:50:59;;;;;;;75.30;40.33;;;;;;;;;;6158643;23;20076;-63
2023/12/29 02:53:27;;;;;;;69.90;39.55;;;;;;;;;;6183629;23;20495;-64
2023/12/29 02:55:54;;;;;;;70.90;40.53;;;;;;;;;;6183445;23;20443;-63
2023/12/29 02:58:22;;;;;;;73.05;39.50;;;;;;;;;;6183295;23;20048;-64
2023/12/29 03:00:50;;;;;;;67.63;37.83;;;;;;;;;;6183498;23;20021;-64
2023/12/29 03:03:17;;;;;;;67.57;36.85;;;;;;;;;;6184824;23;20021;-63
2023/12/29 03:05:46;;;;;;;63.55;35.85;;;;;;;;;;6183662;23;20024;-64
2023/12/29 03:08:13;;;;;;;65.88;36.70;;;;;;;;;;6184931;23;20071;-64
2023/12/29 03:10:41;;;;;;;59.50;35.17;;;;;;;;;;6185092;23;20025;-64
2023/12/29 03:13:08;;;;;;;53.85;32.78;;;;;;;;;;6183178;23;20401;-63
2023/12/29 03:15:36;;;;;;;55.67;32.13;;;;;;;;;;6183194;23;20017;-64
2023/12/29 03:18:04;;;;;;;55.72;32.40;;;;;;;;;;6183336;23;20021;-64
2023/12/29 03:20:32;;;;;;;56.47;31.88;;;;;;;;;;6183429;23;20103;-63
2023/12/29 03:23:00;;;;;;;53.20;30.55;;;;;;;;;;6183116;23;20101;-64
2023/12/29 03:25:27;;;;;;;47.78;28.70;;;;;;;;;;6183362;23;20024;-64
2023/12/29 03:27:55;;;;;;;55.53;30.25;;;;;;;;;;6183666;23;20021;-64
2023/12/29 03:30:23;;;;;;;52.47;30.45;;;;;;;;;;6183323;23;20028;-64
2023/12/29 03:32:50;;;;;;;52.65;29.67;;;;;;;;;;6184837;23;20020;-63
2023/12/29 03:35:18;;;;;;;54.88;29.92;;;;;;;;;;6183317;23;20056;-64
2023/12/29 03:37:45;;;;;;;54.08;30.08;;;;;;;;;;6183216;23;20021;-63
2023/12/29 03:40:14;;;;;;;51.08;27.80;;;;;;;;;;6184700;23;20028;-63
2023/12/29 03:42:42;;;;;;;51.00;29.65;;;;;;;;;;6183502;23;20013;-63
2023/12/29 03:45:10;;;;;;;50.88;29.40;;;;;;;;;;6184815;23;20045;-64
2023/12/29 03:47:38;;;;;;;50.55;29.85;;;;;;;;;;6183312;23;20052;-63
2023/12/29 03:50:05;;;;;;;52.53;29.88;;;;;;;;;;6182781;23;20025;-63
2023/12/29 03:52:34;;;;;;;50.40;28.45;;;;;;;;;;6184614;23;20340;-64
2023/12/29 03:55:01;;;;;;;49.10;28.23;;;;;;;;;;6182925;23;20017;-64
2023/12/29 03:57:29;;;;;;;50.33;29.70;;;;;;;;;;6183051;23;20100;-64
2023/12/29 03:59:56;;;;;;;51.35;29.60;;;;;;;;;;6182841;23;20014;-64
2023/12/29 04:02:24;;;;;;;54.25;31.08;;;;;;;;;;6184526;23;20087;-64
2023/12/29 04:04:51;;;;;;;52.55;30.27;;;;;;;;;;6184423;23;20021;-64
2023/12/29 04:07:19;;;;;;;48.22;29.13;;;;;;;;;;6182978;23;20017;-64
2023/12/29 04:09:47;;;;;;;53.85;31.27;;;;;;;;;;6183110;23;20104;-64
2023/12/29 04:12:14;;;;;;;55.60;31.00;;;;;;;;;;6182927;23;20017;-64
2023/12/29 04:14:42;;;;;;;47.78;29.45;;;;;;;;;;6186295;23;20064;-64
2023/12/29 04:17:13;;;;;;;53.05;30.63;;;;;;;;;;6186666;23;20396;-64
2023/12/29 04:19:42;;;;;;;49.47;30.25;;;;;;;;;;6184852;23;20048;-64
2023/12/29 04:22:09;;;;;;;54.15;31.30;;;;;;;;;;6184911;23;20049;-64
2023/12/29 04:24:40;;;;;;;56.90;31.27;;;;;;;;;;6184693;23;20048;-64
2023/12/29 04:27:08;;;;;;;51.72;30.38;;;;;;;;;;6186586;23;20088;-64
2023/12/29 04:29:37;;;;;;;53.95;31.17;;;;;;;;;;6186453;23;20024;-64
2023/12/29 04:32:04;;;;;;;51.97;29.58;;;;;;;;;;6186355;23;20371;-64
2023/12/29 04:34:32;;;;;;;52.30;30.95;;;;;;;;;;6184518;23;20048;-64
2023/12/29 04:37:00;;;;;;;52.95;30.00;;;;;;;;;;6184806;23;20017;-64
2023/12/29 04:39:27;;;;;;;56.88;30.98;;;;;;;;;;6186397;23;20021;-64
2023/12/29 04:41:55;;;;;;;54.78;31.58;;;;;;;;;;6184546;23;20071;-64
2023/12/29 04:44:23;;;;;;;53.70;31.02;;;;;;;;;;6186646;23;20024;-64
2023/12/29 04:46:51;;;;;;;50.85;30.25;;;;;;;;;;6186265;23;20021;-64
2023/12/29 04:49:18;;;;;;;50.22;30.15;;;;;;;;;;6186294;23;20074;-64
2023/12/29 04:51:48;;;;;;;51.22;30.85;;;;;;;;;;6184588;23;20017;-64
2023/12/29 04:54:15;;;;;;;54.20;31.23;;;;;;;;;;6185959;23;20048;-64
2023/12/29 04:56:43;;;;;;;53.00;31.42;;;;;;;;;;6185887;23;20013;-64
2023/12/29 04:59:11;;;;;;;51.42;30.75;;;;;;;;;;6185590;23;20386;-64
2023/12/29 05:01:38;;;;;;;51.95;30.13;;;;;;;;;;6185922;23;20021;-64
2023/12/29 05:04:06;;;;;;;58.80;29.88;;;;;;;;;;6185992;23;20487;-64
2023/12/29 05:06:33;;;;;;;51.72;29.25;;;;;;;;;;6185999;23;20020;-64
2023/12/29 05:09:01;;;;;;;50.13;29.63;;;;;;;;;;6185875;23;20013;-64
2023/12/29 05:11:29;;;;;;;52.65;29.45;;;;;;;;;;6186018;23;20328;-64
2023/12/29 05:13:56;;;;;;;50.15;29.63;;;;;;;;;;6186011;23;20017;-64
2023/12/29 05:16:24;;;;;;;45.50;27.88;;;;;;;;;;6186214;23;20068;-64
2023/12/29 05:18:51;;;;;;;46.85;27.42;;;;;;;;;;6185804;23;20036;-64
2023/12/29 05:21:20;;;;;;;49.78;28.70;;;;;;;;;;6186182;23;20343;-64
2023/12/29 05:23:48;;;;;;;45.92;28.42;;;;;;;;;;6185710;23;20133;-64
2023/12/29 05:26:16;;;;;;;54.10;29.63;;;;;;;;;;6185777;23;20382;-64
2023/12/29 05:28:43;;;;;;;58.20;31.90;;;;;;;;;;6185509;23;20025;-63
2023/12/29 05:31:11;;;;;;;46.88;28.80;;;;;;;;;;6185756;23;20020;-64
2023/12/29 05:33:38;;;;;;;54.15;30.83;;;;;;;;;;6185674;23;20025;-63
2023/12/29 05:36:10;;;;;;;51.88;30.45;;;;;;;;;;6185831;23;20019;-64
2023/12/29 05:38:39;;;;;;;51.13;32.10;;;;;;;;;;6185780;23;20043;-63
2023/12/29 05:41:07;;;;;;;55.30;30.63;;;;;;;;;;6185763;23;20013;-63
2023/12/29 05:43:35;;;;;;;55.33;31.67;;;;;;;;;;6185544;23;20092;-63
2023/12/29 05:46:02;;;;;;;60.28;31.90;;;;;;;;;;6185573;23;20024;-63
2023/12/29 05:48:30;;;;;;;59.72;31.55;;;;;;;;;;6185613;23;20037;-64
2023/12/29 05:50:58;;;;;;;60.55;31.63;;;;;;;;;;6185213;23;20088;-64
2023/12/29 05:53:25;;;;;;;55.90;33.50;;;;;;;;;;6184654;23;20096;-64
2023/12/29 05:55:53;;;;;;;62.38;33.22;;;;;;;;;;6185409;23;20017;-64
2023/12/29 05:58:20;;;;;;;58.88;33.55;;;;;;;;;;6185017;23;20021;-64
2023/12/29 06:00:48;;;;;;;60.55;33.65;;;;;;;;;;6185417;23;20017;-64
2023/12/29 06:03:15;;;;;;;55.05;32.70;;;;;;;;;;6185311;23;20072;-64
2023/12/29 06:05:43;;;;;;;56.20;32.97;;;;;;;;;;6159269;23;20021;-63
2023/12/29 06:08:13;;;;;;;54.17;32.08;;;;;;;;;;6185148;23;20040;-65
2023/12/29 06:10:41;;;;;;;55.58;31.42;;;;;;;;;;6185353;23;20384;-66
2023/12/29 06:13:08;;;;;;;52.65;31.52;;;;;;;;;;6185491;23;20041;-64
2023/12/29 06:15:36;;;;;;;51.15;30.75;;;;;;;;;;6185587;23;20081;-64
2023/12/29 06:18:04;;;;;;;54.25;31.23;;;;;;;;;;6185398;23;20043;-64
2023/12/29 06:20:33;;;;;;;57.03;34.60;;;;;;;;;;6185424;23;20021;-63
2023/12/29 06:23:00;;;;;;;59.65;35.42;;;;;;;;;;6185324;23;20017;-64
2023/12/29 06:25:29;;;;;;;55.15;32.05;;;;;;;;;;6185599;23;20532;-65
2023/12/29 06:27:56;;;;;;;57.67;32.80;;;;;;;;;;6185623;23;20017;-65
2023/12/29 06:30:24;;;;;;;56.58;32.40;;;;;;;;;;6180496;23;20526;-65
2023/12/29 06:32:52;;;;;;;56.70;31.05;;;;;;;;;;6177647;23;20060;-64
2023/12/29 06:35:20;;;;;;;54.92;30.92;;;;;;;;;;6176871;23;20025;-65
2023/12/29 06:37:47;;;;;;;52.03;30.60;;;;;;;;;;6176716;23;20571;-65
2023/12/29 06:40:16;;;;;;;52.70;30.17;;;;;;;;;;6176984;23;20027;-64
2023/12/29 06:42:44;;;;;;;55.85;30.92;;;;;;;;;;6176748;23;20426;-65
2023/12/29 06:45:12;;;;;;;63.80;34.08;;;;;;;;;;6176660;23;20036;-65
2023/12/29 06:47:39;;;;;;;54.50;33.30;;;;;;;;;;6177307;23;20052;-65
2023/12/29 06:50:12;;;;;;;61.72;36.33;;;;;;;;;;6178242;23;20025;-65
2023/12/29 06:52:40;;;;;;;60.53;34.95;;;;;;;;;;6178322;23;20399;-65
2023/12/29 06:55:08;;;;;;;54.63;29.80;;;;;;;;;;6177686;23;20021;-65
2023/12/29 06:57:36;;;;;;;49.60;29.02;;;;;;;;;;6178411;23;20023;-65
2023/12/29 07:00:04;;;;;;;46.60;26.58;;;;;;;;;;6178651;23;20021;-65
2023/12/29 07:02:32;;;;;;;44.75;25.45;;;;;;;;;;6178621;23;20025;-65
2023/12/29 07:05:00;;;;;;;47.58;26.10;;;;;;;;;;6178752;23;20028;-65
2023/12/29 07:07:28;;;;;;;42.47;25.58;;;;;;;;;;6177990;23;20013;-65
2023/12/29 07:09:55;;;;;;;45.03;25.67;;;;;;;;;;6178839;23;20092;-65
2023/12/29 07:12:23;;;;;;;44.30;25.65;;;;;;;;;;6178766;23;20025;-65
2023/12/29 07:14:51;;;;;;;48.55;27.05;;;;;;;;;;6178666;23;20021;-65
2023/12/29 07:17:20;;;;;;;40.08;24.50;;;;;;;;;;6177123;23;20135;-65
2023/12/29 07:19:49;;;;;;;45.75;27.05;;;;;;;;;;6177860;23;20014;-66
2023/12/29 07:22:17;;;;;;;48.05;26.13;;;;;;;;;;6178554;23;20020;-65
2023/12/29 07:24:45;;;;;;;43.80;25.30;;;;;;;;;;6178553;23;20394;-66
2023/12/29 07:27:12;;;;;;;40.45;24.60;;;;;;;;;;6178502;23;20024;-65
2023/12/29 07:29:40;;;;;;;39.97;24.88;;;;;;;;;;6178768;23;20351;-65
2023/12/29 07:32:07;;;;;;;43.33;25.45;;;;;;;;;;6178452;23;20022;-66
2023/12/29 07:34:35;;;;;;;45.25;26.73;;;;;;;;;;6177404;23;20025;-67
2023/12/29 07:37:03;;;;;;;38.72;23.63;;;;;;;;;;6178161;23;20749;-65
2023/12/29 07:39:30;;;;;;;37.42;22.63;;;;;;;;;;6178621;23;20025;-62
2023/12/29 07:41:58;;;;;;;38.67;22.83;;;;;;;;;;6177013;23;20096;-63
2023/12/29 07:44:31;;;;;;;39.78;22.10;;;;;;;;;;6176601;23;20273;-62
2023/12/29 07:46:59;;;;;;;33.40;20.20;;;;;;;;;;6178774;23;20071;-62
2023/12/29 07:49:26;;;;;;;34.08;21.02;;;;;;;;;;6180360;23;20025;-63
2023/12/29 07:51:54;;;;;;;34.55;19.88;;;;;;;;;;6180272;23;20028;-62
2023/12/29 07:54:22;;;;;;;35.47;21.20;;;;;;;;;;6153553;23;20020;-62
2023/12/29 07:56:50;;;;;;;31.08;18.02;;;;;;;;;;6180060;23;20021;-62
2023/12/29 07:59:18;;;;;;;32.50;18.42;;;;;;;;;;6180143;23;20020;-62
2023/12/29 08:01:45;;;;;;;29.92;18.50;;;;;;;;;;6178361;23;20100;-62
2023/12/29 08:04:13;;;;;;;30.35;18.02;;;;;;;;;;6180240;23;20325;-62
2023/12/29 08:06:42;;;;;;;29.17;17.35;;;;;;;;;;6179861;23;20113;-62
2023/12/29 08:09:10;;;;;;;28.88;16.77;;;;;;;;;;6179613;23;20013;-62
2023/12/29 08:11:38;;;;;;;27.77;16.73;;;;;;;;;;6179841;23;20076;-62
2023/12/29 08:14:07;;;;;;;27.50;16.13;;;;;;;;;;6179240;23;20369;-63
2023/12/29 08:16:40;;;;;;;26.42;15.75;;;;;;;;;;6178972;23;20027;-62
2023/12/29 08:19:08;;;;;;;23.70;15.75;;;;;;;;;;6179945;23;20023;-62
2023/12/29 08:21:35;;;;;;;25.40;15.88;;;;;;;;;;6180242;23;20261;-62
2023/12/29 08:24:03;;;;;;;23.95;15.35;;;;;;;;;;6179297;23;20104;-62
2023/12/29 08:26:30;;;;;;;23.27;15.57;;;;;;;;;;6178866;23;20467;-62
2023/12/29 08:28:58;;;;;;;23.30;15.07;;;;;;;;;;6178863;23;20025;-62
2023/12/29 08:31:28;;;;;;;27.13;16.05;;;;;;;;;;6179845;23;20380;-63
2023/12/29 08:33:56;;;;;;;26.70;15.75;;;;;;;;;;6179141;23;20081;-62
2023/12/29 08:36:24;;;;;;;31.10;17.17;;;;;;;;;;6180133;23;20100;-62
2023/12/29 08:38:52;;;;;;;25.05;16.45;;;;;;;;;;6179931;23;20025;-62
2023/12/29 08:41:20;;;;;;;25.33;15.30;;;;;;;;;;6178582;23;20405;-62
2023/12/29 08:43:47;;;;;;;23.08;14.90;;;;;;;;;;6177802;23;20478;-62
2023/12/29 08:46:15;;;;;;;23.80;15.63;;;;;;;;;;6179747;23;20105;-62
2023/12/29 08:48:43;;;;;;;25.95;15.50;;;;;;;;;;6180492;23;20016;-62
2023/12/29 08:51:11;;;;;;;22.33;14.85;;;;;;;;;;6179741;23;20025;-62
2023/12/29 08:53:39;;;;;;;25.58;15.82;;;;;;;;;;6177459;23;20028;-62
2023/12/29 08:56:06;;;;;;;22.50;13.73;;;;;;;;;;6179318;23;20031;-62
2023/12/29 08:58:34;;;;;;;27.38;14.85;;;;;;;;;;6179406;23;20029;-62
2023/12/29 09:01:02;;;;;;;20.17;13.50;;;;;;;;;;6180044;23;20087;-62
2023/12/29 09:03:30;;;;;;;22.48;14.32;;;;;;;;;;6179874;23;20364;-62
2023/12/29 09:05:58;;;;;;;22.10;14.35;;;;;;;;;;6179517;23;20021;-64
2023/12/29 09:08:27;;;;;;;22.83;13.75;;;;;;;;;;6177761;23;20025;-63
2023/12/29 09:10:56;;;;;;;19.77;13.02;;;;;;;;;;6179874;23;20100;-63
2023/12/29 09:13:26;;;;;;;23.95;14.63;;;;;;;;;;6179603;23;20105;-63
2023/12/29 09:15:55;;;;;;;23.75;14.70;;;;;;;;;;6178415;23;20028;-62
2023/12/29 09:18:22;;;;;;;20.23;13.75;;;;;;;;;;6178300;23;20451;-62
2023/12/29 09:20:50;;;;;;;22.40;13.15;;;;;;;;;;6178870;23;20017;-63
2023/12/29 09:23:18;;;;;;;21.25;13.70;;;;;;;;;;6177140;23;20104;-63
2023/12/29 09:25:45;;;;;;;21.13;13.27;;;;;;;;;;6179561;23;20025;-63
2023/12/29 09:28:13;;;;;;;20.90;13.23;;;;;;;;;;6177946;23;20075;-63
2023/12/29 09:30:41;;;;;;;22.05;13.80;;;;;;;;;;6179140;23;20125;-63
2023/12/29 09:33:12;;;;;;;21.63;13.63;;;;;;;;;;6179318;23;20017;-63
2023/12/29 09:35:40;;;;;;;21.13;13.60;;;;;;;;;;6179230;23;20017;-64
2023/12/29 09:38:09;;;;;;;20.90;14.25;;;;;;;;;;6179617;23;20031;-64
2023/12/29 09:40:37;;;;;;;23.85;13.35;;;;;;;;;;6179639;23;20395;-63
2023/12/29 09:43:05;;;;;;;22.90;13.43;;;;;;;;;;6177030;23;20071;-63
2023/12/29 09:45:34;;;;;;;19.75;12.68;;;;;;;;;;6179355;23;20021;-63
2023/12/29 09:48:02;;;;;;;19.33;12.20;;;;;;;;;;6179247;23;20020;-63
2023/12/29 09:50:32;;;;;;;19.08;12.15;;;;;;;;;;6179688;23;20443;-63
2023/12/29 09:53:00;;;;;;;17.73;11.73;;;;;;;;;;6178908;23;20021;-64
2023/12/29 09:55:28;;;;;;;18.40;12.25;;;;;;;;;;6178771;23;20093;-64
2023/12/29 09:57:57;;;;;;;18.10;11.55;;;;;;;;;;6179260;23;20597;-64
2023/12/29 10:00:25;;;;;;;16.73;10.65;;;;;;;;;;6179199;23;20363;-61
2023/12/29 10:02:59;;;;;;;19.55;11.40;;;;;;;;;;6178620;23;20523;-64
2023/12/29 10:05:26;;;;;;;17.35;11.55;;;;;;;;;;6176397;23;20064;-64
2023/12/29 10:07:55;;;;;;;21.13;11.65;;;;;;;;;;6178591;23;20343;-64
2023/12/29 10:10:24;;;;;;;19.13;11.55;;;;;;;;;;6178949;23;20092;-64
2023/12/29 10:12:52;;;;;;;20.08;11.88;;;;;;;;;;6178120;23;20498;-64
2023/12/29 10:15:35;;;;;;;20.90;12.18;;;;;;;;;;6178475;23;20069;-64
2023/12/29 10:18:12;;;;;;;20.65;12.20;;;;;;;;;;6179539;23;20071;-64
2023/12/29 10:20:50;;;;;;;22.38;12.25;;;;;;;;;;6179122;23;20017;-65
2023/12/29 10:23:26;;;;;;;16.08;11.05;;;;;;;;;;6178838;23;20021;-64
2023/12/29 10:25:54;;;;;;;18.73;12.00;;;;;;;;;;6178738;23;20076;-64
2023/12/29 10:28:21;;;;;;;20.25;11.95;;;;;;;;;;6179110;23;20092;-64
2023/12/29 10:30:50;;;;;;;22.02;11.98;;;;;;;;;;6178499;23;20028;-64
2023/12/29 10:33:29;;;;;;;18.60;10.90;;;;;;;;;;6178121;23;20013;-63
2023/12/29 10:35:58;;;;;;;20.23;11.93;;;;;;;;;;6179482;23;20088;-65
2023/12/29 10:38:28;;;;;;;20.13;12.00;;;;;;;;;;6178261;23;20025;-65
2023/12/29 10:40:55;;;;;;;19.85;11.75;;;;;;;;;;6178531;23;20021;-65
2023/12/29 10:43:24;;;;;;;21.00;12.07;;;;;;;;;;6177585;23;20397;-65
2023/12/29 10:46:07;;;;;;;21.17;11.65;;;;;;;;;;6178002;23;20024;-65
2023/12/29 10:48:34;;;;;;;20.38;11.93;;;;;;;;;;6178074;23;20027;-65
2023/12/29 10:51:04;;;;;;;19.15;12.48;;;;;;;;;;6178518;23;20013;-65
2023/12/29 10:53:35;;;;;;;19.10;12.55;;;;;;;;;;6177678;23;20036;-65
2023/12/29 10:56:19;;;;;;;20.33;11.93;;;;;;;;;;6177537;23;20096;-65
2023/12/29 10:58:59;;;;;;;21.65;12.20;;;;;;;;;;6178475;23;20059;-64
2023/12/29 11:01:27;;;;;;;21.63;11.73;;;;;;;;;;6178583;23;20021;-65
2023/12/29 11:04:02;;;;;;;18.20;11.55;;;;;;;;;;6178465;23;20013;-65
2023/12/29 11:06:40;;;;;;;15.93;10.57;;;;;;;;;;6178073;23;20079;-65
2023/12/29 11:09:08;;;;;;;18.35;10.75;;;;;;;;;;6179201;23;20327;-65
2023/12/29 11:11:37;;;;;;;20.80;11.13;;;;;;;;;;6178658;23;20470;-65
2023/12/29 11:14:05;;;;;;;22.10;12.07;;;;;;;;;;6178623;23;20519;-65
2023/12/29 11:16:32;;;;;;;20.10;11.60;;;;;;;;;;6176835;23;20459;-65
2023/12/29 11:19:00;;;;;;;21.60;11.98;;;;;;;;;;6176867;23;20349;-65
2023/12/29 11:21:28;;;;;;;18.55;11.70;;;;;;;;;;6178245;23;20451;-65
2023/12/29 11:23:56;;;;;;;18.73;12.13;;;;;;;;;;6178692;23;20020;-65
2023/12/29 11:26:24;;;;;;;19.25;12.48;;;;;;;;;;6178300;23;20324;-66
2023/12/29 11:28:52;;;;;;;19.33;12.48;;;;;;;;;;6178567;23;20014;-64
2023/12/29 11:31:20;;;;;;;20.42;11.73;;;;;;;;;;6178035;23;20132;-64
2023/12/29 11:33:51;;;;;;;20.23;12.35;;;;;;;;;;6178567;23;20017;-65
2023/12/29 11:36:22;;;;;;;17.98;10.85;;;;;;;;;;6176762;23;20029;-66
2023/12/29 11:39:04;;;;;;;17.33;11.68;;;;;;;;;;6178632;23;20021;-65
2023/12/29 11:41:47;;;;;;;20.60;12.15;;;;;;;;;;6178380;23;20028;-64
2023/12/29 11:44:25;;;;;;;17.42;11.52;;;;;;;;;;6177679;23;20100;-64
2023/12/29 11:46:53;;;;;;;16.35;11.15;;;;;;;;;;6176881;23;20137;-65
2023/12/29 11:49:21;;;;;;;18.33;11.15;;;;;;;;;;6178641;23;20057;-65
2023/12/29 11:51:50;;;;;;;18.77;11.32;;;;;;;;;;6178540;23;20021;-65
2023/12/29 11:54:24;;;;;;;19.50;11.63;;;;;;;;;;6177555;23;20021;-65
2023/12/29 11:56:53;;;;;;;17.08;11.60;;;;;;;;;;6178291;23;20035;-65
2023/12/29 11:59:22;;;;;;;20.75;10.65;;;;;;;;;;6178060;23;20448;-65
2023/12/29 12:01:54;;;;;;;18.92;12.57;;;;;;;;;;6178272;23;20028;-65
2023/12/29 12:04:39;;;;;;;22.50;12.65;;;;;;;;;;6178319;23;20044;-65
2023/12/29 12:07:08;;;;;;;23.00;11.45;;;;;;;;;;6177894;23;20032;-65
2023/12/29 12:09:36;;;;;;;16.48;10.15;;;;;;;;;;6177941;23;20209;-65
2023/12/29 12:12:04;;;;;;;18.58;9.57;;;;;;;;;;6178330;23;20025;-65
2023/12/29 12:14:51;;;;;;;14.30;8.93;;;;;;;;;;6178600;23;20329;-65
2023/12/29 12:17:29;;;;;;;17.42;10.00;;;;;;;;;;6178687;23;20028;-65
2023/12/29 12:20:11;;;;;;;13.98;8.55;;;;;;;;;;6177922;23;20025;-65
2023/12/29 12:22:38;;;;;;;14.38;8.27;;;;;;;;;;6178563;23;20017;-65
2023/12/29 12:25:06;;;;;;;13.95;8.20;;;;;;;;;;6177999;23;20085;-65
2023/12/29 12:27:37;;;;;;;12.48;8.75;;;;;;;;;;6177928;23;20424;-65
2023/12/29 12:30:06;;;;;;;13.35;8.55;;;;;;;;;;6178364;23;20404;-65
2023/12/29 12:32:34;;;;;;;12.75;8.50;;;;;;;;;;6177816;23;20029;-66
2023/12/29 12:35:01;;;;;;;15.80;8.65;;;;;;;;;;6179084;23;20017;-66
2023/12/29 12:37:29;;;;;;;14.25;8.50;;;;;;;;;;6179730;23;20120;-65
2023/12/29 12:39:57;;;;;;;18.95;8.88;;;;;;;;;;6179690;23;21153;-66
2023/12/29 12:42:25;;;;;;;14.27;8.57;;;;;;;;;;6179342;23;20473;-66
2023/12/29 12:45:03;;;;;;;13.98;9.13;;;;;;;;;;6179865;23;20454;-65
2023/12/29 12:47:42;;;;;;;14.43;8.18;;;;;;;;;;6179831;23;20013;-67
2023/12/29 12:50:10;;;;;;;11.55;8.13;;;;;;;;;;6179843;23;20025;-66
2023/12/29 12:52:38;;;;;;;11.32;8.30;;;;;;;;;;6179945;23;20021;-65
2023/12/29 12:55:07;;;;;;;14.35;8.52;;;;;;;;;;6183122;23;20013;-65
2023/12/29 12:57:36;;;;;;;13.77;8.02;;;;;;;;;;6184977;23;20072;-66
2023/12/29 13:00:05;;;;;;;18.50;8.52;;;;;;;;;;6184375;23;20518;-64
2023/12/29 13:02:34;;;;;;;11.93;7.88;;;;;;;;;;6185519;23;20021;-65
2023/12/29 13:05:07;;;;;;;14.43;8.73;;;;;;;;;;6185861;23;20017;-65
2023/12/29 13:07:35;;;;;;;16.60;8.27;;;;;;;;;;6185888;23;20021;-64
2023/12/29 13:10:03;;;;;;;14.13;8.45;;;;;;;;;;6186375;23;20346;-64
2023/12/29 13:12:31;;;;;;;13.77;9.32;;;;;;;;;;6186026;23;20017;-64
2023/12/29 13:15:08;;;;;;;17.42;9.65;;;;;;;;;;6185164;23;20440;-64
2023/12/29 13:17:36;;;;;;;13.38;8.80;;;;;;;;;;6184624;23;20016;-63
2023/12/29 13:20:04;;;;;;;15.82;9.07;;;;;;;;;;6182421;23;20096;-64
2023/12/29 13:22:32;;;;;;;14.60;9.13;;;;;;;;;;6183467;23;20025;-64
2023/12/29 13:25:00;;;;;;;13.80;9.02;;;;;;;;;;6184871;23;20101;-64
2023/12/29 13:27:27;;;;;;;15.73;9.43;;;;;;;;;;6184535;23;20044;-65
2023/12/29 13:29:55;;;;;;;13.25;9.73;;;;;;;;;;6185117;23;20331;-66
2023/12/29 13:32:28;;;;;;;13.20;8.63;;;;;;;;;;6184724;23;20021;-66
2023/12/29 13:35:07;;;;;;;17.20;8.50;;;;;;;;;;6184061;23;20088;-66
2023/12/29 13:37:41;;;;;;;13.48;8.25;;;;;;;;;;6183579;23;20017;-65
2023/12/29 13:40:27;;;;;;;16.20;8.45;;;;;;;;;;6183769;23;20016;-65
2023/12/29 13:43:00;;;;;;;14.25;8.75;;;;;;;;;;6185029;23;20036;-65
2023/12/29 13:45:28;;;;;;;14.77;8.52;;;;;;;;;;6185285;23;20063;-65
2023/12/29 13:47:56;;;;;;;14.38;9.05;;;;;;;;;;6185550;23;20043;-65
2023/12/29 13:50:24;;;;;;;13.40;8.43;;;;;;;;;;6185520;23;20017;-65
2023/12/29 13:52:52;;;;;;;14.32;9.18;;;;;;;;;;6185534;23;20076;-65
2023/12/29 13:55:23;;;;;;;14.70;9.30;;;;;;;;;;6185557;23;20025;-65
2023/12/29 13:57:51;;;;;;;13.38;8.43;;;;;;;;;;6185642;23;20087;-65
2023/12/29 14:00:23;;;;;;;13.52;8.20;;;;;;;;;;6184255;23;20027;-65
2023/12/29 14:03:06;;;;;;;16.48;9.15;;;;;;;;;;6183259;23;20339;-65
2023/12/29 14:05:40;;;;;;;14.10;9.27;;;;;;;;;;6184622;23;20009;-65
2023/12/29 14:08:20;;;;;;;15.73;9.15;;;;;;;;;;6184862;23;20021;-65
2023/12/29 14:10:47;;;;;;;16.17;9.18;;;;;;;;;;6184807;23;20021;-66
2023/12/29 14:13:16;;;;;;;15.27;9.27;;;;;;;;;;6183200;23;20091;-65
2023/12/29 14:15:51;;;;;;;13.77;8.77;;;;;;;;;;6183812;23;20044;-65
2023/12/29 14:18:37;;;;;;;12.00;8.25;;;;;;;;;;6185775;23;20387;-65
2023/12/29 14:21:21;;;;;;;14.35;9.05;;;;;;;;;;6185451;23;20019;-66
2023/12/29 14:24:09;;;;;;;16.97;8.87;;;;;;;;;;6185470;23;20081;-65
2023/12/29 14:26:37;;;;;;;13.65;8.65;;;;;;;;;;6185171;23;20626;-65
2023/12/29 14:29:09;;;;;;;14.43;8.75;;;;;;;;;;6185169;23;20056;-65